createdAt,value
2018-07-25T00:01:42.768Z,8.77
2018-07-25T00:04:12.375Z,9.30
2018-07-25T00:06:41.673Z,9.57
2018-07-25T00:09:11.688Z,9.13
2018-07-25T00:11:40.879Z,9.20
2018-07-25T00:14:10.520Z,8.53
2018-07-25T00:16:39.463Z,8.93
2018-07-25T00:19:08.798Z,8.90
2018-07-25T00:21:38.605Z,9.63
2018-07-25T00:24:07.674Z,8.63
2018-07-25T00:26:37.010Z,9.63
2018-07-25T00:29:05.982Z,8.93
2018-07-25T00:31:34.992Z,9.33
2018-07-25T00:34:04.596Z,8.90
2018-07-25T00:36:33.900Z,8.67
2018-07-25T00:39:03.298Z,8.43
2018-07-25T00:41:32.495Z,8.97
2018-07-25T00:44:02.116Z,8.07
2018-07-25T00:46:31.244Z,8.27
2018-07-25T00:49:00.768Z,8.50
2018-07-25T00:51:29.826Z,8.20
2018-07-25T00:53:59.332Z,8.63
2018-07-25T00:56:28.347Z,8.70
2018-07-25T00:58:57.907Z,8.53
2018-07-25T01:01:27.209Z,7.62
2018-07-25T01:03:56.483Z,8.23
2018-07-25T01:06:26.424Z,8.53
2018-07-25T01:08:55.707Z,7.87
2018-07-25T01:11:25.025Z,7.97
2018-07-25T01:13:54.623Z,9.10
2018-07-25T01:16:23.636Z,8.10
2018-07-25T01:18:53.544Z,8.38
2018-07-25T01:21:22.514Z,8.17
2018-07-25T01:23:51.507Z,8.43
2018-07-25T01:26:20.780Z,7.53
2018-07-25T01:28:50.100Z,8.00
2018-07-25T01:31:19.144Z,7.00
2018-07-25T01:33:48.972Z,7.43
2018-07-25T01:36:18.016Z,7.43
2018-07-25T01:38:47.640Z,8.20
2018-07-25T01:41:16.605Z,7.57
2018-07-25T01:43:45.935Z,7.53
2018-07-25T01:46:15.255Z,7.90
2018-07-25T01:48:44.838Z,7.13
2018-07-25T01:51:14.446Z,7.30
2018-07-25T01:53:43.438Z,7.30
2018-07-25T01:56:12.436Z,8.70
2018-07-25T01:58:41.407Z,8.17
2018-07-25T02:01:11.034Z,7.53
2018-07-25T02:03:40.000Z,7.40
2018-07-25T02:06:09.041Z,7.20
2018-07-25T02:08:37.984Z,7.07
2018-07-25T02:11:07.623Z,7.70
2018-07-25T02:13:37.067Z,7.27
2018-07-25T02:16:06.190Z,7.07
2018-07-25T02:18:35.202Z,7.20
2018-07-25T02:21:04.443Z,6.73
2018-07-25T02:23:34.130Z,8.10
2018-07-25T02:26:03.456Z,7.43
2018-07-25T02:28:32.429Z,7.60
2018-07-25T02:31:01.864Z,8.10
2018-07-25T02:33:36.386Z,8.07
2018-07-25T02:36:05.847Z,7.77
2018-07-25T02:38:35.456Z,8.50
2018-07-25T02:41:05.384Z,7.70
2018-07-25T02:43:34.981Z,7.43
2018-07-25T02:46:03.990Z,8.37
2018-07-25T02:48:32.945Z,9.60
2018-07-25T02:51:02.572Z,10.20
2018-07-25T02:53:32.181Z,10.53
2018-07-25T02:56:02.095Z,9.93
2018-07-25T02:58:31.852Z,10.50
2018-07-25T03:01:01.782Z,10.40
2018-07-25T03:03:31.531Z,9.73
2018-07-25T03:06:00.839Z,9.77
2018-07-25T03:08:30.748Z,9.93
2018-07-25T03:11:00.028Z,9.33
2018-07-25T03:13:29.032Z,9.77
2018-07-25T03:16:06.481Z,9.03
2018-07-25T03:18:35.699Z,9.33
2018-07-25T03:21:04.669Z,8.77
2018-07-25T03:23:35.603Z,9.00
2018-07-25T03:26:04.755Z,8.77
2018-07-25T03:28:33.749Z,8.43
2018-07-25T03:31:03.363Z,8.73
2018-07-25T03:33:32.656Z,9.17
2018-07-25T03:36:01.640Z,8.70
2018-07-25T03:38:30.640Z,8.23
2018-07-25T03:40:59.928Z,9.50
2018-07-25T03:43:29.553Z,9.03
2018-07-25T03:45:58.855Z,9.10
2018-07-25T03:48:28.462Z,9.50
2018-07-25T03:50:58.070Z,10.20
2018-07-25T03:53:27.711Z,9.47
2018-07-25T03:55:56.925Z,10.17
2018-07-25T03:58:26.312Z,10.00
2018-07-25T04:00:55.272Z,9.57
2018-07-25T04:03:24.278Z,10.73
2018-07-25T04:05:53.564Z,9.80
2018-07-25T04:08:22.879Z,10.70
2018-07-25T04:10:52.780Z,11.30
2018-07-25T04:13:22.332Z,10.80
2018-07-25T04:15:51.372Z,10.47
2018-07-25T04:18:20.704Z,10.13
2018-07-25T04:20:50.292Z,9.47
2018-07-25T04:23:20.208Z,9.93
2018-07-25T04:25:49.200Z,10.37
2018-07-25T04:28:18.802Z,9.33
2018-07-25T04:30:48.093Z,8.73
2018-07-25T04:33:17.719Z,8.80
2018-07-25T04:35:47.047Z,9.23
2018-07-25T04:38:16.303Z,8.83
2018-07-25T04:40:45.275Z,8.87
2018-07-25T04:43:14.592Z,9.17
2018-07-25T04:45:43.566Z,8.87
2018-07-25T04:48:13.519Z,9.17
2018-07-25T04:50:42.524Z,9.30
2018-07-25T04:53:12.120Z,9.10
2018-07-25T04:55:41.570Z,8.80
2018-07-25T04:58:11.641Z,8.53
2018-07-25T05:00:40.911Z,8.57
2018-07-25T05:03:10.549Z,9.30
2018-07-25T05:05:40.157Z,10.93
2018-07-25T05:08:09.764Z,11.22
2018-07-25T05:10:39.065Z,10.07
2018-07-25T05:13:08.682Z,9.93
2018-07-25T05:15:37.935Z,8.63
2018-07-25T05:18:07.424Z,8.58
2018-07-25T05:20:37.191Z,9.03
2018-07-25T05:23:06.812Z,8.40
2018-07-25T05:25:35.792Z,8.57
2018-07-25T05:28:05.635Z,8.80
2018-07-25T05:30:35.258Z,7.85
2018-07-25T05:33:04.317Z,8.23
2018-07-25T05:35:33.598Z,8.17
2018-07-25T05:38:03.883Z,8.78
2018-07-25T05:40:33.473Z,8.98
2018-07-25T05:43:03.045Z,8.13
2018-07-25T05:45:32.657Z,7.62
2018-07-25T05:48:02.263Z,7.72
2018-07-25T05:50:31.583Z,7.70
2018-07-25T05:53:00.718Z,8.03
2018-07-25T05:55:30.160Z,7.87
2018-07-25T05:57:59.215Z,7.92
2018-07-25T06:00:28.149Z,8.10
2018-07-25T06:02:57.839Z,8.80
2018-07-25T06:05:27.672Z,8.50
2018-07-25T06:07:56.694Z,8.78
2018-07-25T06:10:26.414Z,7.75
2018-07-25T06:12:56.208Z,8.63
2018-07-25T06:15:25.971Z,8.23
2018-07-25T06:17:55.132Z,10.63
2018-07-25T06:20:24.439Z,9.03
2018-07-25T06:22:53.694Z,9.08
2018-07-25T06:25:22.995Z,8.88
2018-07-25T06:27:52.780Z,8.50
2018-07-25T06:30:22.222Z,8.48
2018-07-25T06:32:51.820Z,7.65
2018-07-25T06:35:20.842Z,8.58
2018-07-25T06:37:50.161Z,9.08
2018-07-25T06:40:19.723Z,8.40
2018-07-25T06:42:48.989Z,8.38
2018-07-25T06:45:18.353Z,8.83
2018-07-25T06:47:47.607Z,8.28
2018-07-25T06:50:17.230Z,8.68
2018-07-25T06:52:46.710Z,7.97
2018-07-25T06:55:16.184Z,7.67
2018-07-25T06:57:45.744Z,8.43
2018-07-25T07:00:15.502Z,8.43
2018-07-25T07:02:44.960Z,14.43
2018-07-25T07:05:14.257Z,8.88
2018-07-25T07:07:43.560Z,8.23
2018-07-25T07:10:12.905Z,8.08
2018-07-25T07:12:41.876Z,8.73
2018-07-25T07:15:12.676Z,8.68
2018-07-25T07:17:43.074Z,8.28
2018-07-25T07:20:14.117Z,8.68
2018-07-25T07:22:54.359Z,8.78
2018-07-25T07:25:23.767Z,7.83
2018-07-25T07:27:53.824Z,8.50
2018-07-25T07:30:30.342Z,7.78
2018-07-25T07:33:00.310Z,7.70
2018-07-25T07:35:29.471Z,8.43
2018-07-25T07:37:58.387Z,7.83
2018-07-25T07:40:27.290Z,6.83
2018-07-25T07:42:56.259Z,7.22
2018-07-25T07:45:25.169Z,6.50
2018-07-25T07:47:54.083Z,7.08
2018-07-25T07:50:23.132Z,7.37
2018-07-25T07:52:52.035Z,7.03
2018-07-25T07:55:20.954Z,7.17
2018-07-25T07:57:49.851Z,6.20
2018-07-25T08:00:18.853Z,5.87
2018-07-25T08:02:48.464Z,6.78
2018-07-25T08:05:17.406Z,6.62
2018-07-25T08:07:46.469Z,6.12
2018-07-25T08:10:16.738Z,5.67
2018-07-25T08:12:45.744Z,6.33
2018-07-25T08:15:14.632Z,6.10
2018-07-25T08:17:44.049Z,6.05
2018-07-25T08:20:13.113Z,5.92
2018-07-25T08:22:42.486Z,6.35
2018-07-25T08:25:11.518Z,6.15
2018-07-25T08:27:40.763Z,6.65
2018-07-25T08:30:11.303Z,6.47
2018-07-25T08:32:40.947Z,6.75
2018-07-25T08:35:10.259Z,7.05
2018-07-25T08:37:39.575Z,7.35
2018-07-25T08:40:08.576Z,6.72
2018-07-25T08:42:37.867Z,6.37
2018-07-25T08:45:07.625Z,7.28
2018-07-25T08:47:36.813Z,6.28
2018-07-25T08:50:06.865Z,7.62
2018-07-25T08:52:36.320Z,8.43
2018-07-25T08:55:05.906Z,7.40
2018-07-25T08:57:35.207Z,6.55
2018-07-25T09:00:04.304Z,7.08
2018-07-25T09:02:33.184Z,7.08
2018-07-25T09:05:02.803Z,7.15
2018-07-25T09:07:32.080Z,7.83
2018-07-25T09:10:01.709Z,6.75
2018-07-25T09:12:30.871Z,7.12
2018-07-25T09:15:00.099Z,6.92
2018-07-25T09:17:29.304Z,7.70
2018-07-25T09:19:58.639Z,7.05
2018-07-25T09:22:28.028Z,7.03
2018-07-25T09:24:57.443Z,7.87
2018-07-25T09:27:26.813Z,6.50
2018-07-25T09:29:56.113Z,6.60
2018-07-25T09:32:25.565Z,7.10
2018-07-25T09:34:54.705Z,6.33
2018-07-25T09:37:24.014Z,7.00
2018-07-25T09:39:53.334Z,7.15
2018-07-25T09:42:22.951Z,7.45
2018-07-25T09:44:52.065Z,6.95
2018-07-25T09:47:21.308Z,6.92
2018-07-25T09:49:51.050Z,7.17
2018-07-25T09:52:20.741Z,8.30
2018-07-25T09:54:50.038Z,7.30
2018-07-25T09:57:19.043Z,6.80
2018-07-25T09:59:48.103Z,6.15
2018-07-25T10:02:17.355Z,6.92
2018-07-25T10:04:46.865Z,6.55
2018-07-25T10:07:16.223Z,7.42
2018-07-25T10:09:46.344Z,7.22
2018-07-25T10:12:16.371Z,7.22
2018-07-25T10:14:45.979Z,7.60
2018-07-25T10:17:15.279Z,7.00
2018-07-25T10:19:44.583Z,7.35
2018-07-25T10:22:13.957Z,6.70
2018-07-25T10:24:43.817Z,7.55
2018-07-25T10:27:13.206Z,7.42
2018-07-25T10:29:43.438Z,7.47
2018-07-25T10:32:13.233Z,6.85
2018-07-25T10:34:42.601Z,8.30
2018-07-25T10:37:12.184Z,17.82
2018-07-25T10:39:46.143Z,12.13
2018-07-25T10:42:18.933Z,12.37
2018-07-25T10:44:49.259Z,9.53
2018-07-25T10:47:18.795Z,9.03
2018-07-25T10:49:48.428Z,8.45
2018-07-25T10:52:17.773Z,8.58
2018-07-25T10:54:47.400Z,7.53
2018-07-25T10:57:16.827Z,7.65
2018-07-25T10:59:46.013Z,8.15
2018-07-25T11:02:19.159Z,7.97
2018-07-25T11:04:53.790Z,7.70
2018-07-25T11:07:24.129Z,8.68
2018-07-25T11:09:56.298Z,8.10
2018-07-25T11:12:31.133Z,8.00
2018-07-25T11:15:09.719Z,7.83
2018-07-25T11:20:18.386Z,8.03
2018-07-25T11:22:50.090Z,7.90
2018-07-25T11:25:25.682Z,8.08
2018-07-25T11:28:00.205Z,8.28
2018-07-25T11:30:30.669Z,7.45
2018-07-25T11:33:01.260Z,7.55
2018-07-25T11:35:30.473Z,7.78
2018-07-25T11:37:59.668Z,6.95
2018-07-25T11:40:29.471Z,7.55
2018-07-25T11:42:58.773Z,6.95
2018-07-25T11:45:31.959Z,7.20
2018-07-25T11:48:03.689Z,7.42
2018-07-25T11:50:34.396Z,6.97
2018-07-25T11:53:03.689Z,8.37
2018-07-25T11:55:37.052Z,7.08
2018-07-25T11:58:06.449Z,7.87
2018-07-25T12:00:37.085Z,7.42
2018-07-25T12:03:10.072Z,7.45
2018-07-25T12:05:39.772Z,7.90
2018-07-25T12:08:09.595Z,8.20
2018-07-25T12:10:38.970Z,7.47
2018-07-25T12:13:08.503Z,8.03
2018-07-25T12:15:37.859Z,8.05
2018-07-25T12:18:07.958Z,8.38
2018-07-25T12:23:15.988Z,8.18
2018-07-25T12:25:50.455Z,8.98
2018-07-25T12:28:19.951Z,8.60
2018-07-25T12:30:52.071Z,7.95
2018-07-25T12:33:22.571Z,8.38
2018-07-25T12:35:53.100Z,8.00
2018-07-25T12:38:22.244Z,8.38
2018-07-25T12:40:55.196Z,8.58
2018-07-25T12:43:24.832Z,8.10
2018-07-25T12:45:54.447Z,7.83
2018-07-25T12:48:23.943Z,7.33
2018-07-25T12:50:53.261Z,7.20
2018-07-25T12:53:22.741Z,7.33
2018-07-25T12:55:51.653Z,7.10
2018-07-25T12:58:21.216Z,7.40
2018-07-25T13:00:50.658Z,6.87
2018-07-25T13:03:20.022Z,7.65
2018-07-25T13:05:49.316Z,6.85
2018-07-25T13:08:19.187Z,7.20
2018-07-25T13:10:48.676Z,7.22
2018-07-25T13:13:18.193Z,7.30
2018-07-25T13:15:47.772Z,6.70
2018-07-25T13:18:17.155Z,7.50
2018-07-25T13:20:46.620Z,6.65
2018-07-25T13:23:16.184Z,7.08
2018-07-25T13:25:45.254Z,7.00
2018-07-25T13:28:16.133Z,21.15
2018-07-25T13:30:45.544Z,8.25
2018-07-25T13:33:14.924Z,17.10
2018-07-25T13:35:44.565Z,10.13
2018-07-25T13:38:13.617Z,10.47
2018-07-25T13:40:42.943Z,8.20
2018-07-25T13:43:12.538Z,8.80
2018-07-25T13:45:42.088Z,7.45
2018-07-25T13:48:14.019Z,7.25
2018-07-25T13:50:44.254Z,7.17
2018-07-25T13:53:14.012Z,6.42
2018-07-25T13:55:43.368Z,6.95
2018-07-25T13:58:12.748Z,7.25
2018-07-25T14:00:42.523Z,7.25
2018-07-25T14:03:11.556Z,6.97
2018-07-25T14:05:41.430Z,6.58
2018-07-25T14:08:12.403Z,6.97
2018-07-25T14:10:42.959Z,7.47
2018-07-25T14:13:12.404Z,7.62
2018-07-25T14:15:41.437Z,7.70
2018-07-25T14:18:11.028Z,7.30
2018-07-25T14:20:40.612Z,7.78
2018-07-25T14:23:10.527Z,6.90
2018-07-25T14:25:39.981Z,6.97
2018-07-25T14:28:09.864Z,7.33
2018-07-25T14:30:39.606Z,7.12
2018-07-25T14:33:09.604Z,7.15
2018-07-25T14:35:38.910Z,6.70
2018-07-25T14:38:09.001Z,6.97
2018-07-25T14:40:38.692Z,7.10
2018-07-25T14:43:07.845Z,7.05
2018-07-25T14:45:37.612Z,7.03
2018-07-25T14:48:06.625Z,7.45
2018-07-25T14:50:35.717Z,7.40
2018-07-25T14:53:05.336Z,6.97
2018-07-25T14:55:34.600Z,7.08
2018-07-25T14:58:05.961Z,8.00
2018-07-25T15:00:36.507Z,7.50
2018-07-25T15:03:18.289Z,7.20
2018-07-25T15:05:47.702Z,7.50
2018-07-25T15:08:17.044Z,6.92
2018-07-25T15:10:46.323Z,6.92
2018-07-25T15:13:15.887Z,7.08
2018-07-25T15:15:45.192Z,7.03
2018-07-25T15:18:14.540Z,6.87
2018-07-25T15:20:44.043Z,6.83
2018-07-25T15:23:13.745Z,7.10
2018-07-25T15:25:42.769Z,6.60
2018-07-25T15:28:12.295Z,6.75
2018-07-25T15:30:42.214Z,6.50
2018-07-25T15:33:11.272Z,6.35
2018-07-25T15:35:41.917Z,6.45
2018-07-25T15:38:10.858Z,6.97
2018-07-25T15:40:40.524Z,6.87
2018-07-25T15:43:09.935Z,6.97
2018-07-25T15:45:39.253Z,6.95
2018-07-25T15:48:08.522Z,7.10
2018-07-25T15:50:37.846Z,6.87
2018-07-25T15:53:06.849Z,7.10
2018-07-25T15:55:36.453Z,7.15
2018-07-25T15:58:05.907Z,7.28
2018-07-25T16:00:35.774Z,7.00
2018-07-25T16:03:05.279Z,7.97
2018-07-25T16:05:34.678Z,7.75
2018-07-25T16:08:05.175Z,8.13
2018-07-25T16:10:34.806Z,7.53
2018-07-25T16:13:04.462Z,7.55
2018-07-25T16:15:33.735Z,8.40
2018-07-25T16:18:03.846Z,8.50
2018-07-25T16:20:33.183Z,8.40
2018-07-25T16:23:02.755Z,7.85
2018-07-25T16:25:35.308Z,7.90
2018-07-25T16:28:08.007Z,8.23
2018-07-25T16:30:38.584Z,8.95
2018-07-25T16:33:08.560Z,9.40
2018-07-25T16:35:37.567Z,10.40
2018-07-25T16:38:06.862Z,9.15
2018-07-25T16:40:35.876Z,9.05
2018-07-25T16:43:05.145Z,8.80
2018-07-25T16:45:34.523Z,9.10
2018-07-25T16:48:03.808Z,9.35
2018-07-25T16:50:33.354Z,9.10
2018-07-25T16:53:02.539Z,9.43
2018-07-25T16:55:32.266Z,9.23
2018-07-25T16:58:01.881Z,8.83
2018-07-25T17:00:31.213Z,10.25
2018-07-25T17:03:00.801Z,9.93
2018-07-25T17:05:29.976Z,9.85
2018-07-25T17:07:59.685Z,9.88
2018-07-25T17:10:29.444Z,9.38
2018-07-25T17:12:58.995Z,9.50
2018-07-25T17:15:31.244Z,8.63
2018-07-25T17:18:00.631Z,9.53
2018-07-25T17:20:29.599Z,9.28
2018-07-25T17:22:59.175Z,8.55
2018-07-25T17:25:28.474Z,10.03
2018-07-25T17:28:00.330Z,9.38
2018-07-25T17:30:33.204Z,8.73
2018-07-25T17:33:06.116Z,8.78
2018-07-25T17:35:39.374Z,8.38
2018-07-25T17:38:08.841Z,8.98
2018-07-25T17:40:38.486Z,9.53
2018-07-25T17:43:07.971Z,9.15
2018-07-25T17:45:37.323Z,9.03
2018-07-25T17:48:06.373Z,9.13
2018-07-25T17:50:35.968Z,10.00
2018-07-25T17:53:05.274Z,8.90
2018-07-25T17:55:38.765Z,9.25
2018-07-25T17:58:08.577Z,9.18
2018-07-25T18:00:43.574Z,8.13
2018-07-25T18:03:14.029Z,9.40
2018-07-25T18:05:43.856Z,9.83
2018-07-25T18:08:13.617Z,8.40
2018-07-25T18:10:44.939Z,8.75
2018-07-25T18:13:20.013Z,8.78
2018-07-25T18:15:49.625Z,9.68
2018-07-25T18:18:20.496Z,10.90
2018-07-25T18:20:53.228Z,10.93
2018-07-25T18:23:24.078Z,12.28
2018-07-25T18:25:53.519Z,14.33
2018-07-25T18:28:22.803Z,13.50
2018-07-25T18:30:52.000Z,12.95
2018-07-25T18:33:21.195Z,12.07
2018-07-25T18:35:50.977Z,11.33
2018-07-25T18:38:20.887Z,10.13
2018-07-25T18:40:50.202Z,10.70
2018-07-25T18:43:20.503Z,10.38
2018-07-25T18:45:49.383Z,11.67
2018-07-25T18:48:20.820Z,10.78
2018-07-25T18:50:49.983Z,10.13
2018-07-25T18:53:19.159Z,8.88
2018-07-25T18:55:56.745Z,9.33
2018-07-25T18:58:25.889Z,9.15
2018-07-25T19:00:55.878Z,9.93
2018-07-25T19:03:25.744Z,11.55
2018-07-25T19:05:55.177Z,11.83
2018-07-25T19:08:24.516Z,12.35
2018-07-25T19:10:53.805Z,11.68
2018-07-25T19:13:27.891Z,11.55
2018-07-25T19:15:58.674Z,17.10
2018-07-25T19:18:28.440Z,11.73
2018-07-25T19:20:57.452Z,9.03
2018-07-25T19:23:26.779Z,7.78
2018-07-25T19:25:56.341Z,8.30
2018-07-25T19:28:25.584Z,8.03
2018-07-25T19:30:55.592Z,7.30
2018-07-25T19:33:26.964Z,7.50
2018-07-25T19:35:56.369Z,7.40
2018-07-25T19:38:27.759Z,7.75
2018-07-25T19:41:00.495Z,7.30
2018-07-25T19:43:33.286Z,6.97
2018-07-25T19:46:02.704Z,7.50
2018-07-25T19:48:35.985Z,6.50
2018-07-25T19:51:06.635Z,7.25
2018-07-25T19:53:35.697Z,7.70
2018-07-25T19:56:06.895Z,7.00
2018-07-25T19:58:36.084Z,7.37
2018-07-25T20:01:05.595Z,6.62
2018-07-25T20:03:35.131Z,7.15
2018-07-25T20:06:04.275Z,6.67
2018-07-25T20:08:33.747Z,7.70
2018-07-25T20:11:03.115Z,7.12
2018-07-25T20:13:32.982Z,7.05
2018-07-25T20:16:02.880Z,7.75
2018-07-25T20:18:32.489Z,6.97
2018-07-25T20:21:03.042Z,6.58
2018-07-25T20:23:32.684Z,6.95
2018-07-25T20:26:01.740Z,6.00
2018-07-25T20:28:31.008Z,6.50
2018-07-25T20:31:00.321Z,6.87
2018-07-25T20:33:29.877Z,7.25
2018-07-25T20:35:59.201Z,7.28
2018-07-25T20:38:28.478Z,6.72
2018-07-25T20:40:58.232Z,6.90
2018-07-25T20:43:27.407Z,7.67
2018-07-25T20:45:57.302Z,6.80
2018-07-25T20:48:27.286Z,8.15
2018-07-25T20:50:56.828Z,7.80
2018-07-25T20:53:25.801Z,7.42
2018-07-25T20:55:55.424Z,7.87
2018-07-25T20:58:24.563Z,7.87
2018-07-25T21:00:53.954Z,8.20
2018-07-25T21:03:23.307Z,7.80
2018-07-25T21:05:52.658Z,7.45
2018-07-25T21:08:22.234Z,7.95
2018-07-25T21:10:51.997Z,8.03
2018-07-25T21:13:21.134Z,7.55
2018-07-25T21:15:50.753Z,7.85
2018-07-25T21:18:20.357Z,8.05
2018-07-25T21:20:49.811Z,8.83
2018-07-25T21:23:18.981Z,7.87
2018-07-25T21:25:48.259Z,8.30
2018-07-25T21:28:17.978Z,8.85
2018-07-25T21:30:47.468Z,9.83
2018-07-25T21:33:16.796Z,10.75
2018-07-25T21:35:46.076Z,11.28
2018-07-25T21:38:15.523Z,10.90
2018-07-25T21:40:44.699Z,9.53
2018-07-25T21:43:13.985Z,8.78
2018-07-25T21:45:42.945Z,8.85
2018-07-25T21:48:11.933Z,8.10
2018-07-25T21:50:40.959Z,8.10
2018-07-25T21:53:09.928Z,8.63
2018-07-25T21:55:39.252Z,8.53
2018-07-25T21:58:09.169Z,8.83
2018-07-25T22:00:42.459Z,9.23
2018-07-25T22:03:12.068Z,8.38
2018-07-25T22:05:41.057Z,8.60
2018-07-25T22:08:10.034Z,8.23
2018-07-25T22:10:39.093Z,8.55
2018-07-25T22:13:08.377Z,9.10
2018-07-25T22:15:37.956Z,8.68
2018-07-25T22:18:06.923Z,8.23
2018-07-25T22:20:35.937Z,9.00
2018-07-25T22:23:04.948Z,9.33
2018-07-25T22:25:34.242Z,9.50
2018-07-25T22:28:03.843Z,8.73
2018-07-25T22:30:33.451Z,8.63
2018-07-25T22:33:02.416Z,8.88
2018-07-25T22:35:31.978Z,8.77
2018-07-25T22:38:01.013Z,8.70
2018-07-25T22:40:30.345Z,9.25
2018-07-25T22:43:00.262Z,9.60
2018-07-25T22:45:29.279Z,9.08
2018-07-25T22:47:58.553Z,9.43
2018-07-25T22:50:28.163Z,9.95
2018-07-25T22:52:57.770Z,9.73
2018-07-25T22:55:27.436Z,10.80
2018-07-25T22:57:56.363Z,10.87
2018-07-25T23:00:25.978Z,10.32
2018-07-25T23:02:55.990Z,9.87
2018-07-25T23:05:25.501Z,10.47
2018-07-25T23:07:54.826Z,9.63
2018-07-25T23:10:24.410Z,9.93
2018-07-25T23:12:54.019Z,10.25
2018-07-25T23:15:23.381Z,10.38
2018-07-25T23:17:52.453Z,11.67
2018-07-25T23:20:22.227Z,11.50
2018-07-25T23:22:54.747Z,10.93
2018-07-25T23:25:24.153Z,10.80
2018-07-25T23:27:54.428Z,11.15
2018-07-25T23:30:23.900Z,11.90
2018-07-25T23:32:53.483Z,11.00
2018-07-25T23:35:23.250Z,11.23
2018-07-25T23:37:52.501Z,11.07
2018-07-25T23:40:21.621Z,11.60
2018-07-25T23:42:51.151Z,11.30
2018-07-25T23:45:20.544Z,12.35
2018-07-25T23:47:50.209Z,12.00
2018-07-25T23:50:19.512Z,12.37
2018-07-25T23:52:48.668Z,11.80
2018-07-25T23:55:17.657Z,14.20
2018-07-25T23:57:47.027Z,12.47
